createdAt,value
2018-07-02T00:02:20.027Z,99576.41
2018-07-02T00:04:47.919Z,99580.47
2018-07-02T00:07:22.565Z,99575.68
2018-07-02T00:09:51.023Z,99571.44
2018-07-02T00:12:19.697Z,99573.26
2018-07-02T00:14:48.599Z,99592.77
2018-07-02T00:17:16.770Z,99586.62
2018-07-02T00:19:44.786Z,99588.00
2018-07-02T00:22:13.221Z,99578.00
2018-07-02T00:24:41.175Z,99582.11
2018-07-02T00:27:09.264Z,99577.75
2018-07-02T00:29:37.186Z,99574.49
2018-07-02T00:32:05.269Z,99578.17
2018-07-02T00:34:33.158Z,99581.50
2018-07-02T00:37:01.030Z,99565.90
2018-07-02T00:39:28.903Z,99568.42
2018-07-02T00:41:56.814Z,99568.65
2018-07-02T00:44:24.747Z,99570.83
2018-07-02T00:46:52.660Z,99571.91
2018-07-02T00:49:20.532Z,99580.33
2018-07-02T00:51:48.446Z,99570.69
2018-07-02T00:54:16.382Z,99576.55
2018-07-02T00:56:44.314Z,99576.83
2018-07-02T00:59:12.202Z,99579.88
2018-07-02T01:01:40.145Z,99581.05
2018-07-02T01:04:08.042Z,99583.63
2018-07-02T01:06:35.931Z,99588.05
2018-07-02T01:09:05.447Z,99589.97
2018-07-02T01:11:33.419Z,99589.16
2018-07-02T01:14:01.318Z,99577.59
2018-07-02T01:16:29.199Z,99586.69
2018-07-02T01:18:57.097Z,99585.61
2018-07-02T01:21:24.962Z,99593.02
2018-07-02T01:23:52.896Z,99601.28
2018-07-02T01:26:20.821Z,99608.63
2018-07-02T01:28:48.704Z,99611.77
2018-07-02T01:31:16.629Z,99614.56
2018-07-02T01:33:44.520Z,99620.13
2018-07-02T01:36:12.396Z,99632.50
2018-07-02T01:38:40.333Z,99636.55
2018-07-02T01:41:08.218Z,99640.84
2018-07-02T01:43:36.100Z,99639.89
2018-07-02T01:46:04.106Z,99650.36
2018-07-02T01:48:31.998Z,99661.10
2018-07-02T01:50:59.861Z,99668.23
2018-07-02T01:53:27.775Z,99668.94
2018-07-02T01:55:55.679Z,99670.72
2018-07-02T01:58:24.197Z,99673.50
2018-07-02T02:00:52.078Z,99670.63
2018-07-02T02:03:20.310Z,99674.57
2018-07-02T02:05:48.177Z,99675.95
2018-07-02T02:08:16.425Z,99673.81
2018-07-02T02:10:44.311Z,99670.95
2018-07-02T02:13:12.218Z,99672.75
2018-07-02T02:15:40.135Z,99664.86
2018-07-02T02:18:08.055Z,99668.40
2018-07-02T02:20:35.944Z,99672.34
2018-07-02T02:23:03.955Z,99662.20
2018-07-02T02:25:31.844Z,99666.14
2018-07-02T02:27:59.741Z,99669.45
2018-07-02T02:30:27.657Z,99664.47
2018-07-02T02:32:55.575Z,99671.00
2018-07-02T02:35:23.446Z,99664.52
2018-07-02T02:37:51.330Z,99670.47
2018-07-02T02:40:19.223Z,99668.41
2018-07-02T02:42:47.139Z,99674.71
2018-07-02T02:45:15.034Z,99675.19
2018-07-02T02:47:42.915Z,99679.19
2018-07-02T02:50:10.779Z,99680.03
2018-07-02T02:52:38.639Z,99679.92
2018-07-02T02:55:06.610Z,99673.56
2018-07-02T02:57:34.515Z,99671.84
2018-07-02T03:00:02.401Z,99673.41
2018-07-02T03:02:30.280Z,99675.33
2018-07-02T03:04:58.206Z,99675.45
2018-07-02T03:07:26.062Z,99676.09
2018-07-02T03:09:54.012Z,99674.13
2018-07-02T03:12:21.945Z,99683.17
2018-07-02T03:14:49.822Z,99680.77
2018-07-02T03:17:17.711Z,99680.49
2018-07-02T03:19:45.607Z,99682.11
2018-07-02T03:22:13.525Z,99676.70
2018-07-02T03:24:41.425Z,99669.16
2018-07-02T03:27:09.295Z,99661.00
2018-07-02T03:29:37.180Z,99676.59
2018-07-02T03:32:05.579Z,99671.64
2018-07-02T03:34:33.449Z,99684.80
2018-07-02T03:37:01.337Z,99677.11
2018-07-02T03:39:29.222Z,99676.90
2018-07-02T03:41:57.114Z,99701.52
2018-07-02T03:44:25.116Z,99701.57
2018-07-02T03:46:52.977Z,99699.80
2018-07-02T03:49:20.866Z,99691.73
2018-07-02T03:51:48.735Z,99701.23
2018-07-02T03:54:16.626Z,99694.77
2018-07-02T03:56:44.467Z,99693.97
2018-07-02T03:59:12.322Z,99695.63
2018-07-02T04:01:40.181Z,99700.70
2018-07-02T04:04:08.108Z,99695.73
2018-07-02T04:06:35.989Z,99693.20
2018-07-02T04:09:07.010Z,99684.70
2018-07-02T04:11:34.907Z,99691.95
2018-07-02T04:14:02.837Z,99695.20
2018-07-02T04:16:30.726Z,99704.52
2018-07-02T04:19:03.071Z,99719.59
2018-07-02T04:21:30.980Z,99723.20
2018-07-02T04:23:58.932Z,99730.04
2018-07-02T04:26:26.785Z,99727.27
2018-07-02T04:28:54.623Z,99735.10
2018-07-02T04:31:22.567Z,99724.03
2018-07-02T04:33:50.490Z,99725.91
2018-07-02T04:36:18.366Z,99723.65
2018-07-02T04:38:46.238Z,99733.63
2018-07-02T04:41:14.142Z,99737.21
2018-07-02T04:43:42.027Z,99740.88
2018-07-02T04:46:09.886Z,99749.42
2018-07-02T04:48:37.750Z,99749.38
2018-07-02T04:51:05.679Z,99748.64
2018-07-02T04:53:33.560Z,99746.42
2018-07-02T04:56:01.473Z,99754.96
2018-07-02T04:58:29.607Z,99768.03
2018-07-02T05:00:57.485Z,99760.41
2018-07-02T05:03:25.355Z,99744.13
2018-07-02T05:05:53.208Z,99732.97
2018-07-02T05:08:21.106Z,99726.83
2018-07-02T05:10:48.978Z,99724.86
2018-07-02T05:13:16.802Z,99718.80
2018-07-02T05:15:44.622Z,99731.58
2018-07-02T05:18:12.479Z,99719.27
2018-07-02T05:20:40.299Z,99727.88
2018-07-02T05:23:08.234Z,99726.89
2018-07-02T05:25:36.083Z,99734.45
2018-07-02T05:28:03.906Z,99736.49
2018-07-02T05:30:31.854Z,99731.12
2018-07-02T05:32:59.972Z,99721.14
2018-07-02T05:35:27.821Z,99726.27
2018-07-02T05:37:55.666Z,99721.94
2018-07-02T05:40:23.473Z,99722.66
2018-07-02T05:42:51.337Z,99723.91
2018-07-02T05:45:19.172Z,99729.52
2018-07-02T05:47:46.997Z,99723.91
2018-07-02T05:50:14.808Z,99722.31
2018-07-02T05:52:42.640Z,99731.45
2018-07-02T05:55:10.668Z,99743.48
2018-07-02T05:57:38.769Z,99748.41
2018-07-02T06:00:06.742Z,99747.94
2018-07-02T06:02:34.624Z,99740.83
2018-07-02T06:05:02.513Z,99728.68
2018-07-02T06:07:30.381Z,99727.67
2018-07-02T06:09:58.237Z,99730.84
2018-07-02T06:12:26.103Z,99733.34
2018-07-02T06:14:53.959Z,99738.63
2018-07-02T06:17:21.835Z,99736.72
2018-07-02T06:19:49.671Z,99726.78
2018-07-02T06:22:17.539Z,99727.81
2018-07-02T06:24:45.396Z,99723.50
2018-07-02T06:27:13.246Z,99725.72
2018-07-02T06:29:41.094Z,99714.45
2018-07-02T06:32:08.936Z,99718.72
2018-07-02T06:34:36.800Z,99719.89
2018-07-02T06:37:04.765Z,99715.88
2018-07-02T06:39:32.645Z,99716.74
2018-07-02T06:42:00.818Z,99721.61
2018-07-02T06:44:29.004Z,99706.28
2018-07-02T06:46:56.855Z,99708.19
2018-07-02T06:49:24.740Z,99708.25
2018-07-02T06:51:52.583Z,99707.56
2018-07-02T06:54:20.400Z,99720.67
2018-07-02T06:56:48.579Z,99715.43
2018-07-02T06:59:16.439Z,99717.67
2018-07-02T07:01:44.291Z,99711.98
2018-07-02T07:04:12.323Z,99719.27
2018-07-02T07:06:40.214Z,99712.91
2018-07-02T07:09:09.486Z,99717.30
2018-07-02T07:11:37.541Z,99719.36
2018-07-02T07:14:05.616Z,99736.19
2018-07-02T07:16:33.509Z,99728.77
2018-07-02T07:19:01.604Z,99724.78
2018-07-02T07:21:29.455Z,99722.91
2018-07-02T07:23:57.459Z,99728.69
2018-07-02T07:26:25.317Z,99731.91
2018-07-02T07:28:53.798Z,99732.09
2018-07-02T07:31:21.950Z,99737.22
2018-07-02T07:33:49.798Z,99736.61
2018-07-02T07:36:18.245Z,99732.50
2018-07-02T07:38:46.094Z,99726.97
2018-07-02T07:41:14.025Z,99735.42
2018-07-02T07:43:41.890Z,99720.56
2018-07-02T07:46:09.746Z,99723.05
2018-07-02T07:48:37.570Z,99727.07
2018-07-02T07:51:05.591Z,99725.66
2018-07-02T07:53:33.475Z,99717.50
2018-07-02T07:56:01.710Z,99715.67
2018-07-02T07:58:29.577Z,99716.05
2018-07-02T08:00:57.425Z,99723.62
2018-07-02T08:03:25.441Z,99717.52
2018-07-02T08:05:53.307Z,99708.77
2018-07-02T08:08:21.168Z,99708.56
2018-07-02T08:10:49.006Z,99716.97
2018-07-02T08:13:16.891Z,99719.34
2018-07-02T08:15:44.824Z,99717.33
2018-07-02T08:18:12.714Z,99722.12
2018-07-02T08:20:40.642Z,99719.39
2018-07-02T08:23:08.511Z,99714.23
2018-07-02T08:25:36.395Z,99712.19
2018-07-02T08:28:04.426Z,99720.70
2018-07-02T08:30:32.373Z,99721.21
2018-07-02T08:33:00.455Z,99723.86
2018-07-02T08:35:28.230Z,99730.61
2018-07-02T08:37:56.163Z,99728.29
2018-07-02T08:40:24.057Z,99714.95
2018-07-02T08:42:51.904Z,99721.86
2018-07-02T08:45:19.760Z,99727.48
2018-07-02T08:47:47.599Z,99728.52
2018-07-02T08:50:15.450Z,99724.31
2018-07-02T08:52:43.476Z,99716.59
2018-07-02T08:55:11.339Z,99709.48
2018-07-02T08:57:39.210Z,99715.05
2018-07-02T09:00:07.151Z,99722.58
2018-07-02T09:02:35.028Z,99716.45
2018-07-02T09:05:02.971Z,99720.35
2018-07-02T09:07:30.883Z,99718.85
2018-07-02T09:09:58.795Z,99710.95
2018-07-02T09:12:26.665Z,99708.72
2018-07-02T09:14:54.513Z,99714.88
2018-07-02T09:17:22.430Z,99709.80
2018-07-02T09:19:50.698Z,99710.27
2018-07-02T09:22:18.717Z,99713.14
2018-07-02T09:24:46.845Z,99714.61
2018-07-02T09:27:14.889Z,99717.17
2018-07-02T09:29:43.035Z,99715.67
2018-07-02T09:32:10.730Z,99709.52
2018-07-02T09:34:38.683Z,99698.52
2018-07-02T09:37:06.606Z,99695.03
2018-07-02T09:39:34.509Z,99683.50
2018-07-02T09:42:02.426Z,99676.98
2018-07-02T09:44:30.263Z,99682.98
2018-07-02T09:46:58.106Z,99681.55
2018-07-02T09:49:25.939Z,99679.83
2018-07-02T09:51:53.841Z,99670.22
2018-07-02T09:54:21.694Z,99665.73
2018-07-02T09:56:49.599Z,99670.84
2018-07-02T09:59:17.443Z,99668.67
2018-07-02T10:01:45.273Z,99671.52
2018-07-02T10:04:13.123Z,99679.60
2018-07-02T10:06:41.008Z,99683.98
2018-07-02T10:09:11.212Z,99680.86
2018-07-02T10:11:39.121Z,99674.02
2018-07-02T10:14:07.023Z,99678.42
2018-07-02T10:16:35.206Z,99664.86
2018-07-02T10:19:03.440Z,99658.06
2018-07-02T10:21:31.270Z,99645.42
2018-07-02T10:23:59.185Z,99652.48
2018-07-02T10:26:27.037Z,99659.78
2018-07-02T10:28:55.030Z,99651.52
2018-07-02T10:31:22.993Z,99651.37
2018-07-02T10:33:50.820Z,99659.44
2018-07-02T10:36:18.657Z,99646.19
2018-07-02T10:38:46.518Z,99641.19
2018-07-02T10:41:14.354Z,99641.73
2018-07-02T10:43:42.225Z,99634.27
2018-07-02T10:46:10.040Z,99628.88
2018-07-02T10:48:37.899Z,99630.64
2018-07-02T10:51:05.751Z,99636.61
2018-07-02T10:53:33.580Z,99635.09
2018-07-02T10:56:01.455Z,99626.16
2018-07-02T10:58:29.325Z,99612.77
2018-07-02T11:00:57.186Z,99620.52
2018-07-02T11:03:25.055Z,99613.53
2018-07-02T11:05:52.890Z,99610.09
2018-07-02T11:08:20.749Z,99603.78
2018-07-02T11:10:49.179Z,99610.45
2018-07-02T11:13:17.051Z,99610.23
2018-07-02T11:15:44.885Z,99607.33
2018-07-02T11:18:12.753Z,99600.50
2018-07-02T11:20:41.271Z,99600.92
2018-07-02T11:23:09.158Z,99606.59
2018-07-02T11:25:37.756Z,99597.23
2018-07-02T11:28:05.666Z,99597.73
2018-07-02T11:30:33.495Z,99598.51
2018-07-02T11:33:01.619Z,99594.54
2018-07-02T11:35:29.470Z,99592.52
2018-07-02T11:37:57.347Z,99593.28
2018-07-02T11:40:25.211Z,99596.91
2018-07-02T11:42:53.070Z,99590.70
2018-07-02T11:45:20.934Z,99595.54
2018-07-02T11:47:48.793Z,99601.67
2018-07-02T11:50:16.650Z,99591.86
2018-07-02T11:52:44.508Z,99594.06
2018-07-02T11:55:12.398Z,99580.71
2018-07-02T11:57:40.204Z,99586.16
2018-07-02T12:00:08.805Z,99578.71
2018-07-02T12:02:36.835Z,99584.85
2018-07-02T12:05:05.053Z,99585.92
2018-07-02T12:07:32.963Z,99573.78
2018-07-02T12:10:01.576Z,99574.80
2018-07-02T12:12:29.446Z,99574.48
2018-07-02T12:14:57.294Z,99572.84
2018-07-02T12:17:25.170Z,99564.99
2018-07-02T12:19:53.002Z,99561.00
2018-07-02T12:22:20.830Z,99558.31
2018-07-02T12:24:48.663Z,99561.89
2018-07-02T12:27:16.546Z,99553.66
2018-07-02T12:29:44.449Z,99555.38
2018-07-02T12:32:12.316Z,99546.55
2018-07-02T12:34:40.133Z,99554.20
2018-07-02T12:37:07.961Z,99557.03
2018-07-02T12:39:35.839Z,99558.91
2018-07-02T12:42:03.860Z,99558.27
2018-07-02T12:44:31.763Z,99551.41
2018-07-02T12:46:59.698Z,99559.01
2018-07-02T12:49:27.730Z,99557.41
2018-07-02T12:51:55.571Z,99557.96
2018-07-02T12:54:23.467Z,99557.28
2018-07-02T12:56:51.316Z,99553.05
2018-07-02T12:59:19.180Z,99550.94
2018-07-02T13:01:47.050Z,99547.94
2018-07-02T13:04:14.936Z,99541.88
2018-07-02T13:06:42.774Z,99540.88
2018-07-02T13:09:12.018Z,99537.40
2018-07-02T13:11:40.002Z,99541.45
2018-07-02T13:14:08.862Z,99534.53
2018-07-02T13:16:36.924Z,99534.30
2018-07-02T13:19:05.100Z,99533.95
2018-07-02T13:21:33.016Z,99532.34
2018-07-02T13:24:00.913Z,99530.03
2018-07-02T13:26:29.171Z,99533.56
2018-07-02T13:28:57.022Z,99532.77
2018-07-02T13:31:24.874Z,99525.11
2018-07-02T13:33:52.741Z,99530.22
2018-07-02T13:36:20.797Z,99529.08
2018-07-02T13:38:49.246Z,99529.66
2018-07-02T13:41:17.162Z,99533.22
2018-07-02T13:43:45.009Z,99527.11
2018-07-02T13:46:12.878Z,99529.20
2018-07-02T13:48:40.694Z,99532.30
2018-07-02T13:51:08.571Z,99528.98
2018-07-02T13:53:36.413Z,99522.95
2018-07-02T13:56:04.587Z,99519.45
2018-07-02T13:58:32.494Z,99520.00
2018-07-02T14:01:00.364Z,99524.72
2018-07-02T14:03:28.205Z,99518.16
2018-07-02T14:05:56.037Z,99521.98
2018-07-02T14:08:23.982Z,99517.02
2018-07-02T14:10:51.853Z,99510.01
2018-07-02T14:13:19.681Z,99515.16
2018-07-02T14:15:47.786Z,99515.60
2018-07-02T14:18:15.637Z,99510.45
2018-07-02T14:20:43.476Z,99514.81
2018-07-02T14:23:11.390Z,99510.70
2018-07-02T14:25:39.260Z,99505.01
2018-07-02T14:28:07.101Z,99503.96
2018-07-02T14:30:34.990Z,99512.38
2018-07-02T14:33:02.967Z,99498.14
2018-07-02T14:35:30.965Z,99502.02
2018-07-02T14:37:58.835Z,99504.32
2018-07-02T14:40:26.811Z,99502.63
2018-07-02T14:42:54.679Z,99505.65
2018-07-02T14:45:22.565Z,99498.00
2018-07-02T14:47:50.429Z,99490.19
2018-07-02T14:50:18.277Z,99483.84
2018-07-02T14:52:46.231Z,99487.07
2018-07-02T14:55:14.091Z,99478.79
2018-07-02T14:57:41.918Z,99480.33
2018-07-02T15:00:09.879Z,99486.11
2018-07-02T15:02:37.821Z,99491.56
2018-07-02T15:05:06.171Z,99484.47
2018-07-02T15:07:34.242Z,99491.38
2018-07-02T15:10:02.120Z,99490.62
2018-07-02T15:12:30.015Z,99479.40
2018-07-02T15:14:57.895Z,99479.17
2018-07-02T15:17:25.791Z,99484.28
2018-07-02T15:19:53.682Z,99480.75
2018-07-02T15:22:22.365Z,99477.57
2018-07-02T15:24:50.245Z,99479.59
2018-07-02T15:27:18.338Z,99482.10
2018-07-02T15:29:46.231Z,99486.25
2018-07-02T15:32:15.066Z,99484.03
2018-07-02T15:34:43.109Z,99473.55
2018-07-02T15:37:11.017Z,99477.44
2018-07-02T15:39:38.926Z,99476.50
2018-07-02T15:42:07.667Z,99478.36
2018-07-02T15:44:36.359Z,99482.42
2018-07-02T15:47:04.280Z,99477.05
2018-07-02T15:49:32.211Z,99476.85
2018-07-02T15:52:00.060Z,99470.64
2018-07-02T15:54:27.899Z,99476.40
2018-07-02T15:56:55.742Z,99478.88
2018-07-02T15:59:23.581Z,99469.95
2018-07-02T16:01:51.447Z,99472.89
2018-07-02T16:04:19.289Z,99478.00
2018-07-02T16:06:47.158Z,99485.87
2018-07-02T16:09:15.023Z,99475.18
2018-07-02T16:11:42.933Z,99478.01
2018-07-02T16:14:10.815Z,99471.69
2018-07-02T16:16:38.700Z,99477.17
2018-07-02T16:19:06.653Z,99480.73
2018-07-02T16:21:34.503Z,99489.87
2018-07-02T16:24:02.383Z,99483.35
2018-07-02T16:26:30.294Z,99486.66
2018-07-02T16:28:58.136Z,99486.84
2018-07-02T16:31:25.980Z,99486.03
2018-07-02T16:33:53.863Z,99486.64
2018-07-02T16:36:21.802Z,99487.16
2018-07-02T16:38:49.810Z,99493.03
2018-07-02T16:41:17.683Z,99483.52
2018-07-02T16:43:45.582Z,99487.61
2018-07-02T16:46:13.439Z,99486.05
2018-07-02T16:48:41.310Z,99484.67
2018-07-02T16:51:09.218Z,99486.47
2018-07-02T16:53:37.110Z,99489.61
2018-07-02T16:56:05.123Z,99480.48
2018-07-02T16:58:32.986Z,99484.31
2018-07-02T17:01:00.822Z,99485.83
2018-07-02T17:03:29.035Z,99481.70
2018-07-02T17:05:56.918Z,99477.41
2018-07-02T17:08:24.820Z,99482.49
2018-07-02T17:10:52.942Z,99487.30
2018-07-02T17:13:20.824Z,99483.36
2018-07-02T17:15:48.658Z,99474.91
2018-07-02T17:18:16.559Z,99477.02
2018-07-02T17:20:44.582Z,99474.08
2018-07-02T17:23:12.482Z,99492.85
2018-07-02T17:25:40.329Z,99484.74
2018-07-02T17:28:08.225Z,99485.70
2018-07-02T17:30:36.080Z,99487.45
2018-07-02T17:33:04.142Z,99498.09
2018-07-02T17:35:32.145Z,99489.04
2018-07-02T17:38:00.175Z,99485.88
2018-07-02T17:40:28.083Z,99488.37
2018-07-02T17:42:55.977Z,99494.09
2018-07-02T17:45:23.871Z,99495.11
2018-07-02T17:47:51.754Z,99496.73
2018-07-02T17:50:19.678Z,99494.14
2018-07-02T17:52:47.517Z,99497.78
2018-07-02T17:55:15.397Z,99496.39
2018-07-02T17:57:43.291Z,99495.22
2018-07-02T18:00:11.312Z,99501.08
2018-07-02T18:02:39.245Z,99504.37
2018-07-02T18:05:07.176Z,99502.38
2018-07-02T18:07:35.034Z,99491.70
2018-07-02T18:10:02.950Z,99494.69
2018-07-02T18:12:30.846Z,99507.69
2018-07-02T18:14:58.799Z,99503.23
2018-07-02T18:17:26.647Z,99507.87
2018-07-02T18:19:54.516Z,99505.47
2018-07-02T18:22:22.425Z,99504.69
2018-07-02T18:24:50.316Z,99512.73
2018-07-02T18:27:18.224Z,99512.92
2018-07-02T18:29:46.197Z,99525.20
2018-07-02T18:32:14.098Z,99521.02
2018-07-02T18:34:42.001Z,99530.61
2018-07-02T18:37:10.196Z,99528.16
2018-07-02T18:39:38.119Z,99527.67
2018-07-02T18:42:06.469Z,99532.38
2018-07-02T18:44:34.580Z,99533.10
2018-07-02T18:47:02.707Z,99540.71
2018-07-02T18:49:30.595Z,99541.89
2018-07-02T18:51:58.476Z,99559.92
2018-07-02T18:54:26.340Z,99559.50
2018-07-02T18:56:54.273Z,99552.19
2018-07-02T18:59:22.229Z,99548.48
2018-07-02T19:01:50.183Z,99553.95
2018-07-02T19:04:18.098Z,99556.93
2018-07-02T19:06:46.132Z,99558.83
2018-07-02T19:09:14.086Z,99559.91
2018-07-02T19:11:42.384Z,99563.92
2018-07-02T19:14:10.378Z,99557.38
2018-07-02T19:16:38.330Z,99563.03
2018-07-02T19:19:06.270Z,99566.36
2018-07-02T19:21:34.200Z,99564.33
2018-07-02T19:24:02.328Z,99571.58
2018-07-02T19:26:30.325Z,99577.22
2018-07-02T19:28:58.260Z,99568.41
2018-07-02T19:31:27.573Z,99554.54
2018-07-02T19:33:57.314Z,99544.99
2018-07-02T19:36:26.022Z,99558.48
2018-07-02T19:38:56.102Z,99563.39
2018-07-02T19:41:24.966Z,99565.21
2018-07-02T19:43:55.869Z,99560.20
2018-07-02T19:46:26.544Z,99554.02
2018-07-02T19:48:57.106Z,99560.25
2018-07-02T19:51:26.343Z,99551.29
2018-07-02T19:53:55.362Z,99554.82
2018-07-02T19:56:23.356Z,99548.91
2018-07-02T19:58:51.210Z,99548.00
2018-07-02T20:01:19.052Z,99546.14
2018-07-02T20:03:46.908Z,99545.67
2018-07-02T20:06:14.767Z,99543.16
2018-07-02T20:08:42.691Z,99540.08
2018-07-02T20:11:10.536Z,99548.58
2018-07-02T20:13:38.429Z,99546.49
2018-07-02T20:16:06.313Z,99542.20
2018-07-02T20:18:34.269Z,99540.85
2018-07-02T20:21:02.172Z,99542.58
2018-07-02T20:23:30.051Z,99535.83
2018-07-02T20:25:57.914Z,99529.34
2018-07-02T20:28:25.868Z,99525.25
2018-07-02T20:30:53.731Z,99528.02
2018-07-02T20:33:21.636Z,99529.56
2018-07-02T20:35:49.523Z,99529.61
2018-07-02T20:38:17.504Z,99520.11
2018-07-02T20:40:45.419Z,99518.63
2018-07-02T20:43:13.316Z,99526.69
2018-07-02T20:45:41.216Z,99527.48
2018-07-02T20:48:09.080Z,99525.58
2018-07-02T20:50:36.971Z,99530.88
2018-07-02T20:53:04.915Z,99531.15
2018-07-02T20:55:32.902Z,99531.29
2018-07-02T20:58:00.824Z,99529.93
2018-07-02T21:00:30.360Z,99544.78
2018-07-02T21:02:59.334Z,99540.83
2018-07-02T21:05:27.677Z,99541.39
2018-07-02T21:07:55.576Z,99533.81
2018-07-02T21:10:23.575Z,99531.66
2018-07-02T21:12:51.455Z,99532.59
2018-07-02T21:15:19.305Z,99538.57
2018-07-02T21:17:47.268Z,99546.66
2018-07-02T21:20:15.206Z,99543.65
2018-07-02T21:22:43.383Z,99546.64
2018-07-02T21:25:11.271Z,99550.48
2018-07-02T21:27:39.234Z,99549.67
2018-07-02T21:30:08.023Z,99543.04
2018-07-02T21:32:36.458Z,99545.48
2018-07-02T21:35:04.366Z,99549.00
2018-07-02T21:37:32.317Z,99545.16
2018-07-02T21:40:00.203Z,99551.64
2018-07-02T21:42:28.034Z,99548.30
2018-07-02T21:44:55.870Z,99541.70
2018-07-02T21:47:24.910Z,99550.54
2018-07-02T21:49:53.074Z,99542.56
2018-07-02T21:52:21.038Z,99540.62
2018-07-02T21:54:48.908Z,99536.23
2018-07-02T21:57:16.795Z,99532.23
2018-07-02T21:59:44.662Z,99539.45
2018-07-02T22:02:12.558Z,99542.03
2018-07-02T22:04:40.459Z,99545.62
2018-07-02T22:07:08.448Z,99545.08
2018-07-02T22:09:36.303Z,99544.73
2018-07-02T22:12:04.208Z,99536.45
2018-07-02T22:14:32.074Z,99538.91
2018-07-02T22:16:59.947Z,99535.44
2018-07-02T22:19:27.820Z,99535.98
2018-07-02T22:21:55.763Z,99535.41
2018-07-02T22:24:23.644Z,99533.19
2018-07-02T22:26:51.555Z,99533.23
2018-07-02T22:29:19.455Z,99530.43
2018-07-02T22:31:47.278Z,99518.05
2018-07-02T22:34:15.121Z,99516.17
2018-07-02T22:36:43.037Z,99514.27
2018-07-02T22:39:11.340Z,99508.27
2018-07-02T22:41:39.647Z,99517.06
2018-07-02T22:44:08.366Z,99513.27
2018-07-02T22:46:36.296Z,99516.84
2018-07-02T22:49:04.264Z,99515.73
2018-07-02T22:51:32.142Z,99502.23
2018-07-02T22:53:59.992Z,99500.05
2018-07-02T22:56:27.849Z,99503.06
2018-07-02T22:58:55.721Z,99503.89
2018-07-02T23:01:23.588Z,99495.38
2018-07-02T23:03:51.441Z,99490.97
2018-07-02T23:06:19.301Z,99487.39
2018-07-02T23:08:47.191Z,99492.89
2018-07-02T23:11:15.082Z,99490.39
2018-07-02T23:13:42.918Z,99478.02
2018-07-02T23:16:10.747Z,99482.72
2018-07-02T23:18:38.588Z,99480.28
2018-07-02T23:21:06.453Z,99477.85
2018-07-02T23:23:34.315Z,99474.23
2018-07-02T23:26:02.173Z,99479.48
2018-07-02T23:28:30.055Z,99462.16
2018-07-02T23:30:57.903Z,99465.48
2018-07-02T23:33:25.771Z,99462.72
2018-07-02T23:35:53.744Z,99459.98
2018-07-02T23:38:21.620Z,99465.21
2018-07-02T23:40:49.473Z,99469.86
2018-07-02T23:43:17.381Z,99476.47
2018-07-02T23:45:45.220Z,99474.28
2018-07-02T23:48:13.123Z,99476.74
2018-07-02T23:50:41.007Z,99470.13
2018-07-02T23:53:08.865Z,99459.68
2018-07-02T23:55:36.772Z,99464.89
2018-07-02T23:58:04.925Z,99456.65
